sensor_id;sensor_type;location;lat;lon;timestamp;pressure;altitude;pressure_sealevel;temperature;humidity
67931;BME280;63902;52.000;5.954;2023-07-13T00:00:58;100990.91;;;14.60;81.93
67931;BME280;63902;52.000;5.954;2023-07-13T00:01:58;100980.41;;;14.57;82.11
67931;BME280;63902;52.000;5.954;2023-07-13T00:02:59;100982.13;;;14.58;81.89
67931;BME280;63902;52.000;5.954;2023-07-13T00:04:01;100982.91;;;14.60;82.13
67931;BME280;63902;52.000;5.954;2023-07-13T00:05:02;100984.44;;;14.64;82.12
67931;BME280;63902;52.000;5.954;2023-07-13T00:06:02;100989.59;;;14.67;81.65
67931;BME280;63902;52.000;5.954;2023-07-13T00:07:03;100986.00;;;14.68;81.46
67931;BME280;63902;52.000;5.954;2023-07-13T00:08:04;100986.88;;;14.68;81.23
67931;BME280;63902;52.000;5.954;2023-07-13T00:09:05;100979.88;;;14.66;81.26
67931;BME280;63902;52.000;5.954;2023-07-13T00:10:08;100974.72;;;14.63;81.05
67931;BME280;63902;52.000;5.954;2023-07-13T00:11:08;100978.25;;;14.63;81.36
67931;BME280;63902;52.000;5.954;2023-07-13T00:12:23;100985.28;;;14.64;81.16
67931;BME280;63902;52.000;5.954;2023-07-13T00:13:24;100973.06;;;14.60;81.32
67931;BME280;63902;52.000;5.954;2023-07-13T00:14:27;100978.41;;;14.60;81.29
67931;BME280;63902;52.000;5.954;2023-07-13T00:15:27;100984.59;;;14.61;81.34
67931;BME280;63902;52.000;5.954;2023-07-13T00:16:28;100981.25;;;14.57;81.33
67931;BME280;63902;52.000;5.954;2023-07-13T00:17:29;100985.56;;;14.60;81.36
67931;BME280;63902;52.000;5.954;2023-07-13T00:18:29;100989.94;;;14.61;81.39
67931;BME280;63902;52.000;5.954;2023-07-13T00:19:31;100982.91;;;14.60;81.54
67931;BME280;63902;52.000;5.954;2023-07-13T00:20:32;100995.28;;;14.61;81.46
67931;BME280;63902;52.000;5.954;2023-07-13T00:21:33;100989.94;;;14.61;81.33
67931;BME280;63902;52.000;5.954;2023-07-13T00:22:33;100988.13;;;14.61;81.45
67931;BME280;63902;52.000;5.954;2023-07-13T00:23:36;100989.09;;;14.60;81.28
67931;BME280;63902;52.000;5.954;2023-07-13T00:24:37;100995.13;;;14.64;81.06
67931;BME280;63902;52.000;5.954;2023-07-13T00:25:38;100999.53;;;14.65;80.91
67931;BME280;63902;52.000;5.954;2023-07-13T00:26:39;100987.88;;;14.66;80.84
67931;BME280;63902;52.000;5.954;2023-07-13T00:27:41;100998.47;;;14.67;81.04
67931;BME280;63902;52.000;5.954;2023-07-13T00:28:42;100988.69;;;14.68;80.94
67931;BME280;63902;52.000;5.954;2023-07-13T00:29:42;100990.38;;;14.69;81.36
67931;BME280;63902;52.000;5.954;2023-07-13T00:30:43;100991.16;;;14.71;80.93
67931;BME280;63902;52.000;5.954;2023-07-13T00:31:44;100991.94;;;14.73;80.74
67931;BME280;63902;52.000;5.954;2023-07-13T00:32:44;100971.03;;;14.65;80.30
67931;BME280;63902;52.000;5.954;2023-07-13T00:33:45;100991.78;;;14.76;80.59
67931;BME280;63902;52.000;5.954;2023-07-13T00:34:47;100989.25;;;14.73;80.74
67931;BME280;63902;52.000;5.954;2023-07-13T00:35:48;100990.81;;;14.77;81.24
67931;BME280;63902;52.000;5.954;2023-07-13T00:36:48;100992.47;;;14.80;80.68
67931;BME280;63902;52.000;5.954;2023-07-13T00:37:49;100986.34;;;14.77;80.85
67931;BME280;63902;52.000;5.954;2023-07-13T00:38:49;100983.66;;;14.77;80.59
67931;BME280;63902;52.000;5.954;2023-07-13T00:39:50;100990.59;;;14.82;80.52
67931;BME280;63902;52.000;5.954;2023-07-13T00:40:51;100983.44;;;14.82;80.47
67931;BME280;63902;52.000;5.954;2023-07-13T00:41:51;100997.69;;;14.81;80.26
67931;BME280;63902;52.000;5.954;2023-07-13T00:42:52;100992.38;;;14.81;80.20
67931;BME280;63902;52.000;5.954;2023-07-13T00:43:53;100995.13;;;14.80;80.35
67931;BME280;63902;52.000;5.954;2023-07-13T00:45:01;100994.34;;;14.77;80.19
67931;BME280;63902;52.000;5.954;2023-07-13T00:46:17;100999.00;;;14.74;80.35
67931;BME280;63902;52.000;5.954;2023-07-13T00:47:18;101003.56;;;14.72;80.43
67931;BME280;63902;52.000;5.954;2023-07-13T00:48:21;100997.53;;;14.68;80.26
67931;BME280;63902;52.000;5.954;2023-07-13T00:49:26;100998.41;;;14.69;80.71
67931;BME280;63902;52.000;5.954;2023-07-13T00:50:29;100983.81;;;14.59;80.95
67931;BME280;63902;52.000;5.954;2023-07-13T00:51:33;100997.44;;;14.70;80.45
67931;BME280;63902;52.000;5.954;2023-07-13T00:52:36;100999.19;;;14.71;80.43
67931;BME280;63902;52.000;5.954;2023-07-13T00:53:38;100994.78;;;14.70;80.56
67931;BME280;63902;52.000;5.954;2023-07-13T00:54:42;100990.38;;;14.69;80.50
67931;BME280;63902;52.000;5.954;2023-07-13T00:55:43;100992.38;;;14.65;80.70
67931;BME280;63902;52.000;5.954;2023-07-13T00:56:45;100988.75;;;14.66;80.67
67931;BME280;63902;52.000;5.954;2023-07-13T00:57:47;100989.94;;;14.61;80.78
67931;BME280;63902;52.000;5.954;2023-07-13T00:58:47;100989.88;;;14.62;80.59
67931;BME280;63902;52.000;5.954;2023-07-13T00:59:51;100995.28;;;14.61;80.74
67931;BME280;63902;52.000;5.954;2023-07-13T01:00:53;100996.16;;;14.61;80.78
67931;BME280;63902;52.000;5.954;2023-07-13T01:01:54;101001.47;;;14.61;80.88
67931;BME280;63902;52.000;5.954;2023-07-13T01:02:55;100992.00;;;14.55;81.06
67931;BME280;63902;52.000;5.954;2023-07-13T01:03:57;100997.34;;;14.55;81.24
67931;BME280;63902;52.000;5.954;2023-07-13T01:04:57;100992.19;;;14.52;81.15
67931;BME280;63902;52.000;5.954;2023-07-13T01:06:00;100989.72;;;14.48;81.33
67931;BME280;63902;52.000;5.954;2023-07-13T01:07:01;100994.38;;;14.44;81.63
67931;BME280;63902;52.000;5.954;2023-07-13T01:08:03;100998.84;;;14.44;81.55
67931;BME280;63902;52.000;5.954;2023-07-13T01:09:05;100982.50;;;14.34;81.75
67931;BME280;63902;52.000;5.954;2023-07-13T01:10:07;101000.66;;;14.43;81.66
67931;BME280;63902;52.000;5.954;2023-07-13T01:11:08;101002.47;;;14.43;81.62
67931;BME280;63902;52.000;5.954;2023-07-13T01:12:09;100990.63;;;14.31;81.56
67931;BME280;63902;52.000;5.954;2023-07-13T01:13:10;101000.03;;;14.38;81.69
67931;BME280;63902;52.000;5.954;2023-07-13T01:14:11;100992.38;;;14.32;81.72
67931;BME280;63902;52.000;5.954;2023-07-13T01:15:36;101001.06;;;14.36;81.90
67931;BME280;63902;52.000;5.954;2023-07-13T01:16:37;101008.22;;;14.35;81.81
67931;BME280;63902;52.000;5.954;2023-07-13T01:17:39;100996.59;;;14.36;81.69
67931;BME280;63902;52.000;5.954;2023-07-13T01:18:40;100994.09;;;14.33;81.64
67931;BME280;63902;52.000;5.954;2023-07-13T01:19:42;101001.06;;;14.36;82.04
67931;BME280;63902;52.000;5.954;2023-07-13T01:20:50;100997.53;;;14.35;82.01
67931;BME280;63902;52.000;5.954;2023-07-13T01:21:52;100992.22;;;14.35;81.69
67931;BME280;63902;52.000;5.954;2023-07-13T01:22:53;100991.19;;;14.38;81.68
67931;BME280;63902;52.000;5.954;2023-07-13T01:23:53;100998.16;;;14.40;81.65
67931;BME280;63902;52.000;5.954;2023-07-13T01:24:54;100993.00;;;14.37;81.60
67931;BME280;63902;52.000;5.954;2023-07-13T01:25:56;100985.75;;;14.39;81.97
67931;BME280;63902;52.000;5.954;2023-07-13T01:26:56;101003.50;;;14.40;81.67
67931;BME280;63902;52.000;5.954;2023-07-13T01:27:57;101001.94;;;14.36;81.56
67931;BME280;63902;52.000;5.954;2023-07-13T01:28:58;100999.25;;;14.36;81.48
67931;BME280;63902;52.000;5.954;2023-07-13T01:29:58;101004.69;;;14.35;81.84
67931;BME280;63902;52.000;5.954;2023-07-13T01:30:59;101006.50;;;14.34;81.61
67931;BME280;63902;52.000;5.954;2023-07-13T01:32:00;100996.84;;;14.31;81.89
67931;BME280;63902;52.000;5.954;2023-07-13T01:33:00;101000.38;;;14.32;81.64
67931;BME280;63902;52.000;5.954;2023-07-13T01:34:01;100991.59;;;14.30;82.21
67931;BME280;63902;52.000;5.954;2023-07-13T01:35:02;101001.22;;;14.32;81.88
67931;BME280;63902;52.000;5.954;2023-07-13T01:36:04;101000.38;;;14.32;81.50
67931;BME280;63902;52.000;5.954;2023-07-13T01:37:05;100998.50;;;14.34;81.83
67931;BME280;63902;52.000;5.954;2023-07-13T01:38:06;100995.03;;;14.32;81.58
67931;BME280;63902;52.000;5.954;2023-07-13T01:39:06;101001.22;;;14.32;81.82
67931;BME280;63902;52.000;5.954;2023-07-13T01:40:08;100996.06;;;14.29;81.65
67931;BME280;63902;52.000;5.954;2023-07-13T01:41:09;100974.69;;;14.14;81.61
67931;BME280;63902;52.000;5.954;2023-07-13T01:42:09;100998.91;;;14.26;81.80
67931;BME280;63902;52.000;5.954;2023-07-13T01:43:10;100999.94;;;14.24;82.08
67931;BME280;63902;52.000;5.954;2023-07-13T01:44:11;101000.09;;;14.21;82.02
67931;BME280;63902;52.000;5.954;2023-07-13T01:45:12;100998.97;;;14.25;82.03
67931;BME280;63902;52.000;5.954;2023-07-13T01:46:12;100992.16;;;14.19;82.16
67931;BME280;63902;52.000;5.954;2023-07-13T01:47:13;100996.63;;;14.19;82.05
67931;BME280;63902;52.000;5.954;2023-07-13T01:48:13;100998.44;;;14.18;82.35
67931;BME280;63902;52.000;5.954;2023-07-13T01:49:14;100980.28;;;14.09;82.38
67931;BME280;63902;52.000;5.954;2023-07-13T01:50:15;100973.47;;;14.03;82.63
67931;BME280;63902;52.000;5.954;2023-07-13T01:51:18;100992.16;;;14.19;82.56
67931;BME280;63902;52.000;5.954;2023-07-13T01:52:18;101000.00;;;14.22;82.24
67931;BME280;63902;52.000;5.954;2023-07-13T01:53:19;100992.00;;;14.22;82.53
67931;BME280;63902;52.000;5.954;2023-07-13T01:54:20;100997.25;;;14.24;82.22
67931;BME280;63902;52.000;5.954;2023-07-13T01:55:21;100979.69;;;14.20;82.10
67931;BME280;63902;52.000;5.954;2023-07-13T01:56:22;100990.91;;;14.26;82.26
67931;BME280;63902;52.000;5.954;2023-07-13T01:57:22;100995.38;;;14.26;82.27
67931;BME280;63902;52.000;5.954;2023-07-13T01:58:23;100990.03;;;14.26;82.39
67931;BME280;63902;52.000;5.954;2023-07-13T01:59:24;100990.78;;;14.28;82.29
67931;BME280;63902;52.000;5.954;2023-07-13T02:00:24;100971.09;;;14.15;82.36
67931;BME280;63902;52.000;5.954;2023-07-13T02:01:25;100986.59;;;14.24;82.15
67931;BME280;63902;52.000;5.954;2023-07-13T02:02:26;100980.28;;;14.25;82.57
67931;BME280;63902;52.000;5.954;2023-07-13T02:03:26;100983.91;;;14.24;82.30
67931;BME280;63902;52.000;5.954;2023-07-13T02:04:27;100985.81;;;14.22;82.68
67931;BME280;63902;52.000;5.954;2023-07-13T02:05:27;100982.28;;;14.21;82.59
67931;BME280;63902;52.000;5.954;2023-07-13T02:06:30;100974.78;;;14.12;82.53
67931;BME280;63902;52.000;5.954;2023-07-13T02:07:30;100981.03;;;14.11;83.83
67931;BME280;63902;52.000;5.954;2023-07-13T02:08:32;100989.59;;;14.18;83.12
67931;BME280;63902;52.000;5.954;2023-07-13T02:09:32;100996.56;;;14.20;82.82
67931;BME280;63902;52.000;5.954;2023-07-13T02:10:33;100993.13;;;14.18;82.78
67931;BME280;63902;52.000;5.954;2023-07-13T02:11:34;100988.81;;;14.16;82.44
67931;BME280;63902;52.000;5.954;2023-07-13T02:12:34;100994.13;;;14.16;82.66
67931;BME280;63902;52.000;5.954;2023-07-13T02:13:35;101000.31;;;14.16;82.89
67931;BME280;63902;52.000;5.954;2023-07-13T02:14:36;100985.69;;;14.07;82.73
67931;BME280;63902;52.000;5.954;2023-07-13T02:15:38;101003.09;;;14.15;82.84
67931;BME280;63902;52.000;5.954;2023-07-13T02:16:39;100999.63;;;14.13;82.92
67931;BME280;63902;52.000;5.954;2023-07-13T02:17:40;101005.94;;;14.12;83.26
67931;BME280;63902;52.000;5.954;2023-07-13T02:18:40;101003.41;;;14.08;83.31
67931;BME280;63902;52.000;5.954;2023-07-13T02:19:41;100998.22;;;14.05;84.59
67931;BME280;63902;52.000;5.954;2023-07-13T02:20:42;100999.69;;;14.11;84.02
67931;BME280;63902;52.000;5.954;2023-07-13T02:21:44;101001.50;;;14.10;83.51
67931;BME280;63902;52.000;5.954;2023-07-13T02:22:44;100998.06;;;14.08;82.96
67931;BME280;63902;52.000;5.954;2023-07-13T02:23:45;101010.47;;;14.09;83.12
67931;BME280;63902;52.000;5.954;2023-07-13T02:24:46;101004.34;;;14.07;83.07
67931;BME280;63902;52.000;5.954;2023-07-13T02:25:46;101001.91;;;14.03;83.16
67931;BME280;63902;52.000;5.954;2023-07-13T02:26:47;101006.22;;;14.05;83.15
67931;BME280;63902;52.000;5.954;2023-07-13T02:27:48;100986.50;;;13.92;83.35
67931;BME280;63902;52.000;5.954;2023-07-13T02:28:48;101000.28;;;14.00;83.39
67931;BME280;63902;52.000;5.954;2023-07-13T02:29:49;101002.88;;;14.02;84.67
67931;BME280;63902;52.000;5.954;2023-07-13T02:30:50;101006.50;;;14.01;84.30
67931;BME280;63902;52.000;5.954;2023-07-13T02:31:51;101000.28;;;14.00;83.63
67931;BME280;63902;52.000;5.954;2023-07-13T02:32:51;101003.81;;;14.01;83.58
67931;BME280;63902;52.000;5.954;2023-07-13T02:33:52;100991.66;;;13.95;83.48
67931;BME280;63902;52.000;5.954;2023-07-13T02:34:53;100999.50;;;13.98;83.52
67931;BME280;63902;52.000;5.954;2023-07-13T02:35:53;101001.22;;;13.99;84.07
67931;BME280;63902;52.000;5.954;2023-07-13T02:36:55;100986.56;;;13.91;84.03
67931;BME280;63902;52.000;5.954;2023-07-13T02:37:56;101002.19;;;13.98;84.03
67931;BME280;63902;52.000;5.954;2023-07-13T02:38:57;101004.06;;;13.96;83.72
67931;BME280;63902;52.000;5.954;2023-07-13T02:39:58;101013.06;;;13.94;83.97
67931;BME280;63902;52.000;5.954;2023-07-13T02:40:59;101013.06;;;13.94;84.81
67931;BME280;63902;52.000;5.954;2023-07-13T02:41:59;101000.13;;;13.86;84.40
67931;BME280;63902;52.000;5.954;2023-07-13T02:43:00;100999.19;;;13.87;84.01
67931;BME280;63902;52.000;5.954;2023-07-13T02:44:02;101012.13;;;13.95;84.19
67931;BME280;63902;52.000;5.954;2023-07-13T02:45:03;101004.28;;;13.92;84.74
67931;BME280;63902;52.000;5.954;2023-07-13T02:46:04;101016.75;;;13.91;84.40
67931;BME280;63902;52.000;5.954;2023-07-13T02:47:05;101010.50;;;13.92;84.38
67931;BME280;63902;52.000;5.954;2023-07-13T02:48:05;101008.06;;;13.87;84.22
67931;BME280;63902;52.000;5.954;2023-07-13T02:49:06;101008.28;;;13.83;84.58
67931;BME280;63902;52.000;5.954;2023-07-13T02:50:08;100995.22;;;13.78;84.42
67931;BME280;63902;52.000;5.954;2023-07-13T02:51:09;100998.63;;;13.80;84.61
67931;BME280;63902;52.000;5.954;2023-07-13T02:52:11;101006.41;;;13.85;84.46
67931;BME280;63902;52.000;5.954;2023-07-13T02:53:11;101007.38;;;13.84;84.64
67931;BME280;63902;52.000;5.954;2023-07-13T02:54:12;100984.84;;;13.72;84.40
67931;BME280;63902;52.000;5.954;2023-07-13T02:55:12;101002.19;;;13.81;84.50
67931;BME280;63902;52.000;5.954;2023-07-13T02:56:13;101002.25;;;13.79;84.42
67931;BME280;63902;52.000;5.954;2023-07-13T02:57:14;101006.72;;;13.79;84.92
67931;BME280;63902;52.000;5.954;2023-07-13T02:58:14;101015.53;;;13.81;85.78
67931;BME280;63902;52.000;5.954;2023-07-13T02:59:15;101010.31;;;13.78;85.18
67931;BME280;63902;52.000;5.954;2023-07-13T03:00:16;101016.53;;;13.78;84.83
67931;BME280;63902;52.000;5.954;2023-07-13T03:01:17;101013.00;;;13.78;84.79
67931;BME280;63902;52.000;5.954;2023-07-13T03:02:17;101009.56;;;13.76;85.47
67931;BME280;63902;52.000;5.954;2023-07-13T03:03:18;101013.31;;;13.72;85.55
67931;BME280;63902;52.000;5.954;2023-07-13T03:04:19;101018.47;;;13.75;85.56
67931;BME280;63902;52.000;5.954;2023-07-13T03:05:19;100997.56;;;13.67;85.65
67931;BME280;63902;52.000;5.954;2023-07-13T03:06:20;101016.69;;;13.75;85.44
67931;BME280;63902;52.000;5.954;2023-07-13T03:07:22;101007.44;;;13.65;85.58
67931;BME280;63902;52.000;5.954;2023-07-13T03:08:23;101022.88;;;13.76;85.68
67931;BME280;63902;52.000;5.954;2023-07-13T03:09:24;101003.13;;;13.62;85.37
67931;BME280;63902;52.000;5.954;2023-07-13T03:10:24;101021.31;;;13.72;85.69
67931;BME280;63902;52.000;5.954;2023-07-13T03:11:25;101020.44;;;13.71;85.39
67931;BME280;63902;52.000;5.954;2023-07-13T03:12:26;101008.47;;;13.62;85.50
67931;BME280;63902;52.000;5.954;2023-07-13T03:13:28;101013.63;;;13.65;85.42
67931;BME280;63902;52.000;5.954;2023-07-13T03:14:29;101027.59;;;13.71;85.63
67931;BME280;63902;52.000;5.954;2023-07-13T03:15:29;101009.41;;;13.61;85.99
67931;BME280;63902;52.000;5.954;2023-07-13T03:16:30;101015.44;;;13.65;85.76
67931;BME280;63902;52.000;5.954;2023-07-13T03:17:30;101028.59;;;13.68;86.04
67931;BME280;63902;52.000;5.954;2023-07-13T03:18:31;101021.56;;;13.67;86.36
67931;BME280;63902;52.000;5.954;2023-07-13T03:19:32;101021.63;;;13.65;85.99
67931;BME280;63902;52.000;5.954;2023-07-13T03:20:33;101033.06;;;13.68;86.12
67931;BME280;63902;52.000;5.954;2023-07-13T03:21:34;101026.16;;;13.63;86.12
67931;BME280;63902;52.000;5.954;2023-07-13T03:22:36;101030.47;;;13.66;86.07
67931;BME280;63902;52.000;5.954;2023-07-13T03:23:36;101031.34;;;13.66;86.01
67931;BME280;63902;52.000;5.954;2023-07-13T03:24:37;101031.34;;;13.66;85.88
67931;BME280;63902;52.000;5.954;2023-07-13T03:25:38;101034.16;;;13.63;86.02
67931;BME280;63902;52.000;5.954;2023-07-13T03:26:38;101030.56;;;13.64;86.04
67931;BME280;63902;52.000;5.954;2023-07-13T03:27:39;101035.09;;;13.62;86.32
67931;BME280;63902;52.000;5.954;2023-07-13T03:28:40;101033.41;;;13.61;86.34
67931;BME280;63902;52.000;5.954;2023-07-13T03:29:41;101036.06;;;13.61;87.03
67931;BME280;63902;52.000;5.954;2023-07-13T03:30:41;101038.78;;;13.60;86.98
67931;BME280;63902;52.000;5.954;2023-07-13T03:31:42;101032.59;;;13.59;87.07
67931;BME280;63902;52.000;5.954;2023-07-13T03:32:43;101029.31;;;13.54;87.88
67931;BME280;63902;52.000;5.954;2023-07-13T03:33:43;101033.63;;;13.57;86.87
67931;BME280;63902;52.000;5.954;2023-07-13T03:34:44;101036.22;;;13.58;88.37
67931;BME280;63902;52.000;5.954;2023-07-13T03:35:44;101043.25;;;13.59;87.11
67931;BME280;63902;52.000;5.954;2023-07-13T03:36:45;101036.06;;;13.61;87.73
67931;BME280;63902;52.000;5.954;2023-07-13T03:37:47;101034.31;;;13.60;87.22
67931;BME280;63902;52.000;5.954;2023-07-13T03:38:49;101037.94;;;13.59;87.04
67931;BME280;63902;52.000;5.954;2023-07-13T03:39:50;101005.00;;;13.43;86.74
67931;BME280;63902;52.000;5.954;2023-07-13T03:40:50;101041.53;;;13.58;86.95
67931;BME280;63902;52.000;5.954;2023-07-13T03:41:51;101038.00;;;13.58;87.84
67931;BME280;63902;52.000;5.954;2023-07-13T03:42:52;101033.63;;;13.57;87.34
67931;BME280;63902;52.000;5.954;2023-07-13T03:43:52;101038.09;;;13.56;87.32
67931;BME280;63902;52.000;5.954;2023-07-13T03:44:53;101029.31;;;13.54;87.53
67931;BME280;63902;52.000;5.954;2023-07-13T03:45:54;101042.72;;;13.53;87.94
67931;BME280;63902;52.000;5.954;2023-07-13T03:46:55;101037.44;;;13.51;87.69
67931;BME280;63902;52.000;5.954;2023-07-13T03:47:56;101033.22;;;13.47;87.69
67931;BME280;63902;52.000;5.954;2023-07-13T03:48:57;101042.78;;;13.51;88.00
67931;BME280;63902;52.000;5.954;2023-07-13T03:49:57;101041.91;;;13.51;87.80
67931;BME280;63902;52.000;5.954;2023-07-13T03:50:58;101037.59;;;13.48;88.02
67931;BME280;63902;52.000;5.954;2023-07-13T03:51:59;101046.41;;;13.50;87.61
67931;BME280;63902;52.000;5.954;2023-07-13T03:53:01;101042.13;;;13.46;87.44
67931;BME280;63902;52.000;5.954;2023-07-13T03:54:02;101054.38;;;13.50;89.07
67931;BME280;63902;52.000;5.954;2023-07-13T03:55:03;101033.59;;;13.39;88.08
67931;BME280;63902;52.000;5.954;2023-07-13T03:56:04;101053.66;;;13.47;87.97
67931;BME280;63902;52.000;5.954;2023-07-13T03:57:05;101056.97;;;13.52;87.90
67931;BME280;63902;52.000;5.954;2023-07-13T03:58:25;101061.50;;;13.50;87.71
67931;BME280;63902;52.000;5.954;2023-07-13T03:59:26;101057.97;;;13.49;87.59
67931;BME280;63902;52.000;5.954;2023-07-13T04:00:26;101047.47;;;13.46;88.25
67931;BME280;63902;52.000;5.954;2023-07-13T04:01:27;101060.72;;;13.48;88.54
67931;BME280;63902;52.000;5.954;2023-07-13T04:02:28;101065.19;;;13.47;87.81
67931;BME280;63902;52.000;5.954;2023-07-13T04:03:29;101055.31;;;13.49;88.74
67931;BME280;63902;52.000;5.954;2023-07-13T04:04:30;101048.31;;;13.47;88.31
67931;BME280;63902;52.000;5.954;2023-07-13T04:05:30;101055.25;;;13.51;88.29
67931;BME280;63902;52.000;5.954;2023-07-13T04:06:31;101039.47;;;13.46;88.33
67931;BME280;63902;52.000;5.954;2023-07-13T04:07:32;101052.63;;;13.49;88.02
67931;BME280;63902;52.000;5.954;2023-07-13T04:08:36;101050.06;;;13.48;88.05
67931;BME280;63902;52.000;5.954;2023-07-13T04:09:36;101057.22;;;13.47;88.21
67931;BME280;63902;52.000;5.954;2023-07-13T04:10:37;101046.81;;;13.41;88.43
67931;BME280;63902;52.000;5.954;2023-07-13T04:11:38;101053.66;;;13.47;88.34
67931;BME280;63902;52.000;5.954;2023-07-13T04:12:38;101046.06;;;13.39;88.28
67931;BME280;63902;52.000;5.954;2023-07-13T04:13:39;101054.53;;;13.47;89.06
67931;BME280;63902;52.000;5.954;2023-07-13T04:14:39;101055.47;;;13.46;88.75
67931;BME280;63902;52.000;5.954;2023-07-13T04:15:40;101052.88;;;13.45;88.89
67931;BME280;63902;52.000;5.954;2023-07-13T04:16:41;101061.59;;;13.48;88.80
67931;BME280;63902;52.000;5.954;2023-07-13T04:17:41;101047.63;;;13.43;88.32
67931;BME280;63902;52.000;5.954;2023-07-13T04:18:42;101048.56;;;13.42;88.27
67931;BME280;63902;52.000;5.954;2023-07-13T04:19:43;101066.06;;;13.48;88.72
67931;BME280;63902;52.000;5.954;2023-07-13T04:20:43;101058.81;;;13.50;89.08
67931;BME280;63902;52.000;5.954;2023-07-13T04:21:44;101058.81;;;13.50;89.07
67931;BME280;63902;52.000;5.954;2023-07-13T04:22:45;101055.47;;;13.46;88.94
67931;BME280;63902;52.000;5.954;2023-07-13T04:23:47;101062.53;;;13.47;89.21
67931;BME280;63902;52.000;5.954;2023-07-13T04:24:47;101068.47;;;13.52;89.03
67931;BME280;63902;52.000;5.954;2023-07-13T04:25:49;101060.47;;;13.52;88.78
67931;BME280;63902;52.000;5.954;2023-07-13T04:26:51;101063.16;;;13.52;89.11
67931;BME280;63902;52.000;5.954;2023-07-13T04:27:52;101055.25;;;13.51;88.80
67931;BME280;63902;52.000;5.954;2023-07-13T04:28:53;101062.94;;;13.57;88.90
67931;BME280;63902;52.000;5.954;2023-07-13T04:29:53;101065.53;;;13.58;88.67
67931;BME280;63902;52.000;5.954;2023-07-13T04:30:54;101049.22;;;13.47;89.18
67931;BME280;63902;52.000;5.954;2023-07-13T04:31:55;101074.38;;;13.59;90.71
67931;BME280;63902;52.000;5.954;2023-07-13T04:32:56;101070.72;;;13.61;90.74
67931;BME280;63902;52.000;5.954;2023-07-13T04:33:57;101074.06;;;13.65;90.97
67931;BME280;63902;52.000;5.954;2023-07-13T04:34:58;101058.31;;;13.60;90.94
67931;BME280;63902;52.000;5.954;2023-07-13T04:35:59;101078.41;;;13.68;89.73
67931;BME280;63902;52.000;5.954;2023-07-13T04:37:00;101066.94;;;13.65;89.38
67931;BME280;63902;52.000;5.954;2023-07-13T04:38:01;101071.19;;;13.70;89.07
67931;BME280;63902;52.000;5.954;2023-07-13T04:39:03;101066.78;;;13.69;89.18
67931;BME280;63902;52.000;5.954;2023-07-13T04:40:04;101049.38;;;13.61;88.99
67931;BME280;63902;52.000;5.954;2023-07-13T04:41:06;101066.41;;;13.76;90.95
67931;BME280;63902;52.000;5.954;2023-07-13T04:42:07;101069.88;;;13.78;89.70
67931;BME280;63902;52.000;5.954;2023-07-13T04:43:08;101071.56;;;13.79;89.30
67931;BME280;63902;52.000;5.954;2023-07-13T04:44:09;101067.03;;;13.81;90.70
67931;BME280;63902;52.000;5.954;2023-07-13T04:45:09;101070.63;;;13.80;90.43
67931;BME280;63902;52.000;5.954;2023-07-13T04:46:12;101066.09;;;13.82;89.31
67931;BME280;63902;52.000;5.954;2023-07-13T04:47:13;101074.03;;;13.84;89.72
67931;BME280;63902;52.000;5.954;2023-07-13T04:48:14;101074.03;;;13.84;90.04
67931;BME280;63902;52.000;5.954;2023-07-13T04:49:14;101063.50;;;13.81;89.30
67931;BME280;63902;52.000;5.954;2023-07-13T04:50:15;101071.97;;;13.89;88.93
67931;BME280;63902;52.000;5.954;2023-07-13T04:51:16;101061.28;;;13.89;89.19
67931;BME280;63902;52.000;5.954;2023-07-13T04:52:16;101073.53;;;13.93;88.88
67931;BME280;63902;52.000;5.954;2023-07-13T04:53:17;101076.91;;;13.97;89.37
67931;BME280;63902;52.000;5.954;2023-07-13T04:54:19;101077.69;;;13.99;89.87
67931;BME280;63902;52.000;5.954;2023-07-13T04:55:20;101074.97;;;14.00;89.78
67931;BME280;63902;52.000;5.954;2023-07-13T04:56:20;101082.88;;;14.02;89.27
67931;BME280;63902;52.000;5.954;2023-07-13T04:57:21;101083.66;;;14.04;90.59
67931;BME280;63902;52.000;5.954;2023-07-13T04:58:24;101064.44;;;13.97;90.56
67931;BME280;63902;52.000;5.954;2023-07-13T04:59:25;101063.66;;;13.95;89.55
67931;BME280;63902;52.000;5.954;2023-07-13T05:00:27;101068.75;;;14.00;89.74
67931;BME280;63902;52.000;5.954;2023-07-13T05:01:27;101088.75;;;14.08;90.74
67931;BME280;63902;52.000;5.954;2023-07-13T05:02:28;101065.31;;;13.98;89.91
67931;BME280;63902;52.000;5.954;2023-07-13T05:03:28;101082.31;;;14.13;89.29
67931;BME280;63902;52.000;5.954;2023-07-13T05:04:29;101088.53;;;14.13;89.07
67931;BME280;63902;52.000;5.954;2023-07-13T05:05:29;101084.66;;;14.19;89.00
67931;BME280;63902;52.000;5.954;2023-07-13T05:06:30;101079.56;;;14.14;89.12
67931;BME280;63902;52.000;5.954;2023-07-13T05:07:31;101086.38;;;14.20;90.12
67931;BME280;63902;52.000;5.954;2023-07-13T05:08:31;101098.63;;;14.24;89.35
67931;BME280;63902;52.000;5.954;2023-07-13T05:09:33;101095.03;;;14.25;91.06
67931;BME280;63902;52.000;5.954;2023-07-13T05:10:34;101090.69;;;14.22;89.37
67931;BME280;63902;52.000;5.954;2023-07-13T05:11:35;101090.41;;;14.28;88.95
67931;BME280;63902;52.000;5.954;2023-07-13T05:12:35;101097.53;;;14.28;88.91
67931;BME280;63902;52.000;5.954;2023-07-13T05:13:36;101092.81;;;14.33;89.09
67931;BME280;63902;52.000;5.954;2023-07-13T05:14:37;101102.47;;;14.36;88.96
67931;BME280;63902;52.000;5.954;2023-07-13T05:15:37;101093.50;;;14.37;90.38
67931;BME280;63902;52.000;5.954;2023-07-13T05:16:38;101098.00;;;14.36;89.34
67931;BME280;63902;52.000;5.954;2023-07-13T05:17:39;101101.50;;;14.37;88.93
67931;BME280;63902;52.000;5.954;2023-07-13T05:18:39;101105.06;;;14.37;89.06
67931;BME280;63902;52.000;5.954;2023-07-13T05:19:40;101099.63;;;14.39;89.92
67931;BME280;63902;52.000;5.954;2023-07-13T05:20:40;101102.25;;;14.40;89.18